createdAt,value
2018-12-18T00:01:32.730Z,102047.80
2018-12-18T00:04:35.903Z,102045.11
2018-12-18T00:07:39.090Z,102042.81
2018-12-18T00:10:52.352Z,102042.84
2018-12-18T00:13:55.580Z,102051.23
2018-12-18T00:16:58.933Z,102053.61
2018-12-18T00:20:02.093Z,102053.38
2018-12-18T00:23:05.331Z,102053.34
2018-12-18T00:26:08.609Z,102051.11
2018-12-18T00:29:11.821Z,102045.08
2018-12-18T00:32:15.096Z,102042.06
2018-12-18T00:35:18.328Z,102036.78
2018-12-18T00:38:21.791Z,102028.38
2018-12-18T00:41:24.979Z,102024.73
2018-12-18T00:44:28.228Z,102030.63
2018-12-18T00:47:32.623Z,102024.83
2018-12-18T00:50:37.062Z,102025.60
2018-12-18T00:53:40.259Z,102019.95
2018-12-18T00:56:43.550Z,102016.94
2018-12-18T00:59:48.260Z,102031.41
2018-12-18T01:02:51.493Z,102026.54
2018-12-18T01:05:54.905Z,102023.08
2018-12-18T01:08:58.150Z,102028.72
2018-12-18T01:12:01.330Z,102030.18
2018-12-18T01:15:05.080Z,102032.36
2018-12-18T01:18:08.362Z,102029.04
2018-12-18T01:21:11.750Z,102036.89
2018-12-18T01:24:14.938Z,102041.73
2018-12-18T01:27:18.158Z,102046.09
2018-12-18T01:30:21.454Z,102046.60
2018-12-18T01:33:24.629Z,102055.14
2018-12-18T01:36:27.826Z,102046.98
2018-12-18T01:39:30.988Z,102052.27
2018-12-18T01:42:34.220Z,102050.03
2018-12-18T01:45:37.557Z,102044.45
2018-12-18T01:48:40.797Z,102044.98
2018-12-18T01:51:44.229Z,102043.87
2018-12-18T01:54:47.523Z,102044.18
2018-12-18T01:57:50.797Z,102051.64
2018-12-18T02:00:53.987Z,102055.16
2018-12-18T02:03:57.230Z,102063.56
2018-12-18T02:07:00.552Z,102062.93
2018-12-18T02:10:05.510Z,102060.86
2018-12-18T02:13:08.821Z,102060.00
2018-12-18T02:16:12.019Z,102057.42
2018-12-18T02:19:16.940Z,102058.69
2018-12-18T02:22:20.163Z,102060.33
2018-12-18T02:25:23.467Z,102065.14
2018-12-18T02:28:26.915Z,102061.59
2018-12-18T02:31:30.234Z,102060.42
2018-12-18T02:34:33.505Z,102058.83
2018-12-18T02:37:36.768Z,102057.81
2018-12-18T02:40:40.016Z,102060.27
2018-12-18T02:43:43.353Z,102061.20
2018-12-18T02:46:46.692Z,102056.20
2018-12-18T02:49:50.106Z,102053.06
2018-12-18T02:52:53.524Z,102054.69
2018-12-18T02:55:56.886Z,102051.67
2018-12-18T02:59:00.224Z,102044.28
2018-12-18T03:02:03.514Z,102041.02
2018-12-18T03:05:06.910Z,102043.22
2018-12-18T03:08:10.133Z,102039.70
2018-12-18T03:11:17.604Z,102038.63
2018-12-18T03:14:21.352Z,102033.66
2018-12-18T03:17:25.091Z,102043.34
2018-12-18T03:20:28.407Z,102041.13
2018-12-18T03:23:31.637Z,102040.88
2018-12-18T03:26:34.845Z,102046.13
2018-12-18T03:29:37.993Z,102046.94
2018-12-18T03:32:45.549Z,102051.75
2018-12-18T03:35:48.806Z,102051.67
2018-12-18T03:38:52.025Z,102051.59
2018-12-18T03:41:55.687Z,102048.78
2018-12-18T03:44:58.980Z,102049.29
2018-12-18T03:48:02.132Z,102047.05
2018-12-18T03:51:05.466Z,102039.14
2018-12-18T03:54:08.685Z,102047.00
2018-12-18T03:57:11.896Z,102043.50
2018-12-18T04:00:15.095Z,102054.10
2018-12-18T04:03:18.370Z,102058.49
2018-12-18T04:06:22.070Z,102058.88
2018-12-18T04:09:25.310Z,102067.69
2018-12-18T04:12:29.783Z,102061.18
2018-12-18T04:15:33.006Z,102063.89
2018-12-18T04:18:36.188Z,102063.84
2018-12-18T04:21:39.471Z,102062.55
2018-12-18T04:24:42.722Z,102055.53
2018-12-18T04:27:46.621Z,102060.20
2018-12-18T04:30:49.858Z,102053.55
2018-12-18T04:33:53.092Z,102056.78
2018-12-18T04:36:56.284Z,102058.30
2018-12-18T04:39:59.499Z,102055.61
2018-12-18T04:43:02.916Z,102057.17
2018-12-18T04:46:06.378Z,102059.95
2018-12-18T04:49:09.572Z,102065.57
2018-12-18T04:52:14.217Z,102068.70
2018-12-18T04:55:17.585Z,102068.59
2018-12-18T04:58:20.884Z,102070.44
2018-12-18T05:01:24.095Z,102072.42
2018-12-18T05:04:27.397Z,102070.44
2018-12-18T05:07:30.598Z,102070.25
2018-12-18T05:10:33.882Z,102067.36
2018-12-18T05:13:37.092Z,102072.76
2018-12-18T05:16:41.650Z,102068.70
2018-12-18T05:19:44.824Z,102070.13
2018-12-18T05:22:48.065Z,102072.47
2018-12-18T05:25:51.342Z,102076.39
2018-12-18T05:28:54.620Z,102064.61
2018-12-18T05:31:57.870Z,102068.13
2018-12-18T05:35:01.496Z,102061.93
2018-12-18T05:38:04.783Z,102066.53
2018-12-18T05:41:08.017Z,102066.34
2018-12-18T05:44:11.393Z,102076.00
2018-12-18T05:47:15.153Z,102071.13
2018-12-18T05:50:18.407Z,102065.66
2018-12-18T05:53:21.705Z,102061.21
2018-12-18T05:56:25.079Z,102065.34
2018-12-18T05:59:28.373Z,102065.13
2018-12-18T06:02:32.390Z,102064.73
2018-12-18T06:05:35.575Z,102072.30
2018-12-18T06:08:39.369Z,102074.95
2018-12-18T06:11:42.586Z,102070.95
2018-12-18T06:14:45.835Z,102074.05
2018-12-18T06:17:49.929Z,102071.95
2018-12-18T06:20:53.442Z,102070.58
2018-12-18T06:23:56.662Z,102080.73
2018-12-18T06:26:59.868Z,102076.52
2018-12-18T06:30:03.285Z,102075.05
2018-12-18T06:33:06.522Z,102077.95
2018-12-18T06:36:09.802Z,102076.92
2018-12-18T06:39:13.004Z,102076.00
2018-12-18T06:42:16.364Z,102081.27
2018-12-18T06:45:19.623Z,102072.97
2018-12-18T06:48:22.889Z,102073.81
2018-12-18T06:51:26.214Z,102074.29
2018-12-18T06:54:29.734Z,102080.16
2018-12-18T06:57:33.019Z,102091.88
2018-12-18T07:00:36.314Z,102088.77
2018-12-18T07:03:39.672Z,102086.21
2018-12-18T07:06:43.182Z,102093.31
2018-12-18T07:09:46.502Z,102096.77
2018-12-18T07:12:49.659Z,102098.60
2018-12-18T07:15:52.858Z,102096.47
2018-12-18T07:18:56.051Z,102100.36
2018-12-18T07:21:59.467Z,102100.31
2018-12-18T07:25:02.791Z,102105.27
2018-12-18T07:28:06.807Z,102101.86
2018-12-18T07:31:10.064Z,102104.49
2018-12-18T07:34:13.345Z,102107.52
2018-12-18T07:37:16.644Z,102110.26
2018-12-18T07:40:20.001Z,102108.97
2018-12-18T07:43:23.794Z,102113.41
2018-12-18T07:46:27.114Z,102118.30
2018-12-18T07:49:30.348Z,102123.25
2018-12-18T07:52:33.543Z,102119.02
2018-12-18T07:55:36.731Z,102119.62
2018-12-18T07:58:39.944Z,102123.84
2018-12-18T08:01:44.570Z,102116.27
2018-12-18T08:04:47.878Z,102118.58
2018-12-18T08:07:51.081Z,102126.59
2018-12-18T08:10:54.338Z,102125.89
2018-12-18T08:13:57.556Z,102129.94
2018-12-18T08:17:00.847Z,102136.52
2018-12-18T08:20:04.435Z,102134.88
2018-12-18T08:23:07.942Z,102134.60
2018-12-18T08:26:11.340Z,102136.81
2018-12-18T08:29:14.590Z,102144.32
2018-12-18T08:32:17.886Z,102145.63
2018-12-18T08:35:21.154Z,102144.87
2018-12-18T08:38:24.310Z,102148.72
2018-12-18T08:41:27.516Z,102146.47
2018-12-18T08:44:30.755Z,102141.38
2018-12-18T08:47:34.102Z,102143.18
2018-12-18T08:50:37.322Z,102146.98
2018-12-18T08:53:40.498Z,102144.73
2018-12-18T08:56:43.801Z,102143.72
2018-12-18T08:59:48.213Z,102139.48
2018-12-18T09:02:51.383Z,102140.20
2018-12-18T09:05:54.582Z,102139.34
2018-12-18T09:08:58.746Z,102141.59
2018-12-18T09:12:02.259Z,102145.06
2018-12-18T09:15:11.757Z,102135.42
2018-12-18T09:18:14.944Z,102129.05
2018-12-18T09:21:18.156Z,102133.80
2018-12-18T09:24:21.471Z,102126.71
2018-12-18T09:27:24.731Z,102137.26
2018-12-18T09:30:27.930Z,102128.11
2018-12-18T09:33:31.140Z,102126.56
2018-12-18T09:36:34.406Z,102124.67
2018-12-18T09:39:41.804Z,102123.27
2018-12-18T09:42:50.443Z,102134.87
2018-12-18T09:45:53.647Z,102130.52
2018-12-18T09:48:56.837Z,102135.64
2018-12-18T09:52:00.022Z,102131.94
2018-12-18T09:55:03.537Z,102133.59
2018-12-18T09:58:11.110Z,102131.45
2018-12-18T10:01:14.540Z,102128.30
2018-12-18T10:04:17.821Z,102129.80
2018-12-18T10:07:22.382Z,102121.30
2018-12-18T10:10:26.834Z,102123.44
2018-12-18T10:13:30.156Z,102127.16
2018-12-18T10:16:33.481Z,102125.34
2018-12-18T10:19:36.757Z,102121.19
2018-12-18T10:22:41.598Z,102115.31
2018-12-18T10:25:44.905Z,102113.95
2018-12-18T10:28:48.197Z,102101.11
2018-12-18T10:31:51.432Z,102101.48
2018-12-18T10:34:54.583Z,102101.50
2018-12-18T10:37:57.786Z,102097.76
2018-12-18T10:41:00.977Z,102090.09
2018-12-18T10:44:04.293Z,102084.84
2018-12-18T10:47:07.597Z,102087.56
2018-12-18T10:50:10.941Z,102097.55
2018-12-18T10:53:14.685Z,102097.13
2018-12-18T10:56:17.989Z,102099.68
2018-12-18T10:59:21.629Z,102096.39
2018-12-18T11:02:24.882Z,102096.81
2018-12-18T11:05:28.118Z,102103.32
2018-12-18T11:08:31.367Z,102099.97
2018-12-18T11:11:34.673Z,102105.38
2018-12-18T11:14:37.971Z,102096.72
2018-12-18T11:17:41.283Z,102099.00
2018-12-18T11:20:44.531Z,102098.02
2018-12-18T11:23:47.757Z,102106.28
2018-12-18T11:26:50.959Z,102100.10
2018-12-18T11:29:54.243Z,102091.75
2018-12-18T11:32:57.451Z,102079.55
2018-12-18T11:36:00.633Z,102081.89
2018-12-18T11:39:05.327Z,102084.27
2018-12-18T11:42:08.651Z,102076.47
2018-12-18T11:45:12.474Z,102086.92
2018-12-18T11:48:15.768Z,102089.67
2018-12-18T11:51:18.939Z,102087.98
2018-12-18T11:54:22.258Z,102079.19
2018-12-18T11:57:27.175Z,102088.32
2018-12-18T12:00:30.379Z,102079.11
2018-12-18T12:03:34.291Z,102089.05
2018-12-18T12:06:37.596Z,102081.63
2018-12-18T12:09:40.791Z,102079.09
2018-12-18T12:12:45.555Z,102068.55
2018-12-18T12:15:48.968Z,102073.73
2018-12-18T12:18:52.175Z,102072.16
2018-12-18T12:21:55.348Z,102068.65
2018-12-18T12:24:58.622Z,102066.80
2018-12-18T12:28:06.278Z,102068.64
2018-12-18T12:31:09.531Z,102067.41
2018-12-18T12:34:12.815Z,102062.61
2018-12-18T12:37:16.083Z,102053.92
2018-12-18T12:40:19.383Z,102049.16
2018-12-18T12:43:22.613Z,102054.44
2018-12-18T12:46:25.903Z,102048.95
2018-12-18T12:49:35.290Z,102053.44
2018-12-18T12:52:38.573Z,102061.41
2018-12-18T12:55:41.817Z,102061.84
2018-12-18T12:58:45.000Z,102060.94
2018-12-18T13:01:48.277Z,102053.94
2018-12-18T13:04:52.243Z,102051.70
2018-12-18T13:07:56.206Z,102052.12
2018-12-18T13:10:59.634Z,102051.78
2018-12-18T13:14:03.034Z,102050.63
2018-12-18T13:17:07.236Z,102041.39
2018-12-18T13:20:10.517Z,102048.39
2018-12-18T13:23:13.843Z,102050.44
2018-12-18T13:26:18.081Z,102044.93
2018-12-18T13:29:21.668Z,102045.67
2018-12-18T13:32:25.103Z,102035.97
2018-12-18T13:35:28.359Z,102034.69
2018-12-18T13:38:31.669Z,102024.22
2018-12-18T13:41:35.852Z,102021.52
2018-12-18T13:44:39.101Z,102017.23
2018-12-18T13:47:42.263Z,102017.70
2018-12-18T13:50:45.490Z,102022.09
2018-12-18T13:53:48.891Z,102030.50
2018-12-18T13:56:52.444Z,102029.66
2018-12-18T13:59:55.729Z,102030.98
2018-12-18T14:02:59.577Z,102017.52
2018-12-18T14:06:03.725Z,102021.31
2018-12-18T14:09:09.233Z,102020.94
2018-12-18T14:12:12.465Z,102021.73
2018-12-18T14:15:16.912Z,102024.78
2018-12-18T14:18:20.183Z,102012.86
2018-12-18T14:21:23.610Z,102000.09
2018-12-18T14:24:26.862Z,102011.20
2018-12-18T14:27:31.077Z,102011.69
2018-12-18T14:30:34.399Z,102005.41
2018-12-18T14:33:37.670Z,102010.70
2018-12-18T14:36:40.858Z,102008.97
2018-12-18T14:39:44.134Z,102007.20
2018-12-18T14:42:47.719Z,102005.43
2018-12-18T14:45:50.993Z,102002.42
2018-12-18T14:48:54.185Z,101994.80
2018-12-18T14:51:57.445Z,101985.95
2018-12-18T14:55:00.664Z,101977.97
2018-12-18T14:58:05.480Z,101979.16
2018-12-18T15:01:08.695Z,101976.83
2018-12-18T15:04:11.956Z,101975.89
2018-12-18T15:07:15.189Z,101972.37
2018-12-18T15:10:19.299Z,101961.27
2018-12-18T15:13:22.590Z,101967.42
2018-12-18T15:16:25.974Z,101967.44
2018-12-18T15:19:29.200Z,101968.33
2018-12-18T15:22:32.703Z,101965.68
2018-12-18T15:25:35.952Z,101958.76
2018-12-18T15:28:39.160Z,101967.98
2018-12-18T15:31:42.349Z,101973.63
2018-12-18T15:34:45.545Z,101984.65
2018-12-18T15:37:48.837Z,101992.06
2018-12-18T15:40:52.157Z,101989.02
2018-12-18T15:43:55.470Z,101984.17
2018-12-18T15:46:59.576Z,101985.13
2018-12-18T15:50:02.785Z,101988.63
2018-12-18T15:53:05.961Z,101988.27
2018-12-18T15:56:09.144Z,101984.32
2018-12-18T15:59:12.333Z,101980.89
2018-12-18T16:02:15.558Z,101987.05
2018-12-18T16:05:19.974Z,101995.95
2018-12-18T16:08:23.336Z,101998.27
2018-12-18T16:11:26.553Z,102000.81
2018-12-18T16:14:29.762Z,101990.70
2018-12-18T16:17:32.986Z,101990.68
2018-12-18T16:20:36.260Z,101985.08
2018-12-18T16:23:39.513Z,101981.52
2018-12-18T16:26:42.685Z,101975.75
2018-12-18T16:29:47.593Z,101972.65
2018-12-18T16:32:50.957Z,101974.85
2018-12-18T16:35:54.202Z,101978.89
2018-12-18T16:38:57.464Z,101985.95
2018-12-18T16:42:00.874Z,101972.70
2018-12-18T16:45:04.423Z,101981.61
2018-12-18T16:48:07.754Z,101987.22
2018-12-18T16:51:10.957Z,101983.27
2018-12-18T16:54:14.449Z,101976.80
2018-12-18T16:57:17.663Z,101972.80
2018-12-18T17:00:20.962Z,101960.43
2018-12-18T17:03:24.189Z,101959.10
2018-12-18T17:06:27.657Z,101945.98
2018-12-18T17:09:30.863Z,101936.73
2018-12-18T17:12:34.250Z,101926.13
2018-12-18T17:15:37.550Z,101930.98
2018-12-18T17:18:40.737Z,101921.33
2018-12-18T17:21:45.779Z,101923.12
2018-12-18T17:24:49.020Z,101923.97
2018-12-18T17:27:52.260Z,101926.11
2018-12-18T17:30:55.484Z,101924.39
2018-12-18T17:34:00.201Z,101920.41
2018-12-18T17:37:03.583Z,101923.61
2018-12-18T17:40:08.754Z,101920.32
2018-12-18T17:43:12.124Z,101920.09
2018-12-18T17:46:15.326Z,101917.27
2018-12-18T17:49:18.760Z,101929.02
2018-12-18T17:52:22.152Z,101932.27
2018-12-18T17:55:25.455Z,101930.41
2018-12-18T17:58:28.703Z,101940.25
2018-12-18T18:01:31.930Z,101940.83
2018-12-18T18:04:36.865Z,101932.86
2018-12-18T18:07:43.056Z,101931.72
2018-12-18T18:10:47.264Z,101929.38
2018-12-18T18:13:50.529Z,101922.42
2018-12-18T18:16:54.035Z,101927.64
2018-12-18T18:19:59.116Z,101925.84
2018-12-18T18:23:02.379Z,101919.19
2018-12-18T18:26:05.777Z,101913.06
2018-12-18T18:29:09.041Z,101897.70
2018-12-18T18:32:12.363Z,101900.78
2018-12-18T18:35:17.590Z,101900.84
2018-12-18T18:38:20.927Z,101899.02
2018-12-18T18:41:24.299Z,101898.07
2018-12-18T18:44:27.615Z,101896.73
2018-12-18T18:47:31.292Z,101891.48
2018-12-18T18:50:35.963Z,101895.02
2018-12-18T18:53:40.152Z,101885.71
2018-12-18T18:56:43.442Z,101886.18
2018-12-18T18:59:46.643Z,101880.55
2018-12-18T19:02:49.882Z,101874.37
2018-12-18T19:05:53.147Z,101864.23
2018-12-18T19:08:56.326Z,101859.38
2018-12-18T19:12:01.516Z,101843.91
2018-12-18T19:15:05.276Z,101843.38
2018-12-18T19:18:08.603Z,101844.81
2018-12-18T19:21:11.816Z,101836.95
2018-12-18T19:24:15.062Z,101830.28
2018-12-18T19:27:18.460Z,101816.09
2018-12-18T19:30:21.815Z,101816.35
2018-12-18T19:33:25.207Z,101813.28
2018-12-18T19:36:28.698Z,101814.42
2018-12-18T19:39:32.015Z,101809.22
2018-12-18T19:42:35.685Z,101812.20
2018-12-18T19:45:39.059Z,101803.81
2018-12-18T19:48:42.683Z,101801.17
2018-12-18T19:51:46.155Z,101801.65
2018-12-18T19:54:49.499Z,101807.47
2018-12-18T19:57:52.821Z,101803.10
2018-12-18T20:00:56.156Z,101797.95
2018-12-18T20:03:59.488Z,101793.37
2018-12-18T20:07:02.825Z,101801.31
2018-12-18T20:10:06.959Z,101798.77
2018-12-18T20:13:10.986Z,101801.41
2018-12-18T20:16:15.675Z,101797.03
2018-12-18T20:19:18.940Z,101780.75
2018-12-18T20:22:24.337Z,101777.00
2018-12-18T20:25:28.768Z,101777.84
2018-12-18T20:28:32.476Z,101772.98
2018-12-18T20:31:35.855Z,101771.30
2018-12-18T20:34:39.253Z,101763.44
2018-12-18T20:37:42.771Z,101753.25
2018-12-18T20:40:46.142Z,101748.35
2018-12-18T20:43:49.956Z,101752.33
2018-12-18T20:46:53.245Z,101750.95
2018-12-18T20:49:57.204Z,101751.30
2018-12-18T20:53:00.735Z,101744.22
2018-12-18T20:56:05.225Z,101741.50
2018-12-18T20:59:08.565Z,101730.30
2018-12-18T21:02:11.859Z,101729.78
2018-12-18T21:05:15.460Z,101733.68
2018-12-18T21:08:23.370Z,101732.23
2018-12-18T21:11:24.175Z,101738.89
2018-12-18T21:14:27.434Z,101732.13
2018-12-18T21:17:30.674Z,101727.02
2018-12-18T21:20:34.155Z,101735.61
2018-12-18T21:23:37.491Z,101738.55
2018-12-18T21:26:40.961Z,101743.66
2018-12-18T21:29:44.253Z,101739.23
2018-12-18T21:32:47.586Z,101736.95
2018-12-18T21:35:50.861Z,101737.33
2018-12-18T21:38:54.473Z,101727.80
2018-12-18T21:41:57.874Z,101718.94
2018-12-18T21:45:01.551Z,101708.37
2018-12-18T21:48:04.960Z,101711.67
2018-12-18T21:51:08.361Z,101710.78
2018-12-18T21:54:11.663Z,101710.36
2018-12-18T21:57:15.024Z,101709.02
2018-12-18T22:00:18.762Z,101698.58
2018-12-18T22:03:21.980Z,101705.30
2018-12-18T22:06:25.143Z,101706.54
2018-12-18T22:09:28.345Z,101708.61
2018-12-18T22:12:31.723Z,101704.77
2018-12-18T22:15:34.982Z,101705.98
2018-12-18T22:18:38.175Z,101695.95
2018-12-18T22:21:41.637Z,101695.03
2018-12-18T22:24:44.939Z,101697.41
2018-12-18T22:27:48.741Z,101693.70
2018-12-18T22:30:52.042Z,101694.97
2018-12-18T22:33:55.540Z,101699.28
2018-12-18T22:36:59.332Z,101705.27
2018-12-18T22:40:02.743Z,101691.66
2018-12-18T22:43:06.252Z,101702.15
2018-12-18T22:46:09.526Z,101701.68
2018-12-18T22:49:12.830Z,101683.78
2018-12-18T22:52:16.164Z,101677.97
2018-12-18T22:55:19.334Z,101679.12
2018-12-18T22:58:22.628Z,101676.11
2018-12-18T23:01:31.051Z,101671.73
2018-12-18T23:04:35.419Z,101665.50
2018-12-18T23:07:38.652Z,101655.44
2018-12-18T23:10:41.880Z,101658.08
2018-12-18T23:13:45.126Z,101645.59
2018-12-18T23:16:48.368Z,101641.15
2018-12-18T23:19:51.763Z,101638.03
2018-12-18T23:22:54.963Z,101634.89
2018-12-18T23:25:58.148Z,101630.53
2018-12-18T23:29:01.518Z,101626.66
2018-12-18T23:32:04.722Z,101616.16
2018-12-18T23:35:08.032Z,101594.91
2018-12-18T23:38:11.324Z,101588.94
2018-12-18T23:41:14.786Z,101584.81
2018-12-18T23:44:18.028Z,101578.08
2018-12-18T23:47:21.224Z,101576.75
2018-12-18T23:50:24.536Z,101558.35
2018-12-18T23:53:27.884Z,101554.39
2018-12-18T23:56:31.140Z,101545.30
2018-12-18T23:59:34.321Z,101535.67
